Map

Track Data

SID SEASON NUMBER BASIN SUBBASIN NAME ISO_TIME NATURE LAT LON WMO_WIND WMO_PRES WMO_AGENCY TRACK_TYPE DIST2LAND LANDFALL IFLAG USA_AGENCY USA_ATCF_ID USA_LAT USA_LON USA_RECORD USA_STATUS USA_WIND USA_PRES USA_SSHS USA_R34_NE USA_R34_SE USA_R34_SW USA_R34_NW USA_R50_NE USA_R50_SE USA_R50_SW USA_R50_NW USA_R64_NE USA_R64_SE USA_R64_SW USA_R64_NW USA_POCI USA_ROCI USA_RMW USA_EYE TOKYO_LAT TOKYO_LON TOKYO_GRADE TOKYO_WIND TOKYO_PRES TOKYO_R50_DIR TOKYO_R50_LONG TOKYO_R50_SHORT TOKYO_R30_DIR TOKYO_R30_LONG TOKYO_R30_SHORT TOKYO_LAND CMA_LAT CMA_LON CMA_CAT CMA_WIND CMA_PRES HKO_LAT HKO_LON HKO_CAT HKO_WIND HKO_PRES NEWDELHI_LAT NEWDELHI_LON NEWDELHI_GRADE NEWDELHI_WIND NEWDELHI_PRES NEWDELHI_CI NEWDELHI_DP NEWDELHI_POCI REUNION_LAT REUNION_LON REUNION_TYPE REUNION_WIND REUNION_PRES REUNION_TNUM REUNION_CI REUNION_RMW REUNION_R34_NE REUNION_R34_SE REUNION_R34_SW REUNION_R34_NW REUNION_R50_NE REUNION_R50_SE REUNION_R50_SW REUNION_R50_NW REUNION_R64_NE REUNION_R64_SE REUNION_R64_SW REUNION_R64_NW BOM_LAT BOM_LON BOM_TYPE BOM_WIND BOM_PRES BOM_TNUM BOM_CI BOM_RMW BOM_R34_NE BOM_R34_SE BOM_R34_SW BOM_R34_NW BOM_R50_NE BOM_R50_SE BOM_R50_SW BOM_R50_NW BOM_R64_NE BOM_R64_SE BOM_R64_SW BOM_R64_NW BOM_ROCI BOM_POCI BOM_EYE BOM_POS_METHOD BOM_PRES_METHOD NADI_LAT NADI_LON NADI_CAT NADI_WIND NADI_PRES WELLINGTON_LAT WELLINGTON_LON WELLINGTON_WIND WELLINGTON_PRES DS824_LAT DS824_LON DS824_STAGE DS824_WIND DS824_PRES TD9636_LAT TD9636_LON TD9636_STAGE TD9636_WIND TD9636_PRES TD9635_LAT TD9635_LON TD9635_WIND TD9635_PRES TD9635_ROCI NEUMANN_LAT NEUMANN_LON NEUMANN_CLASS NEUMANN_WIND NEUMANN_PRES MLC_LAT MLC_LON MLC_CLASS MLC_WIND MLC_PRES USA_GUST BOM_GUST BOM_GUST_PER REUNION_GUST REUNION_GUST_PER USA_SEAHGT USA_SEARAD_NE USA_SEARAD_SE USA_SEARAD_SW USA_SEARAD_NW STORM_SPEED STORM_DIR
1931326N22296 1931 58 NA NA NOT_NAMED 1931-11-22 06:00:00 TS 22.0000 -63.7000 35 hurdat_atl main 448 448 O_____________ hurdat_atl AL131931 22.0000 -63.7000 TS 35 0 11 317
1931326N22296 1931 58 NA NA NOT_NAMED 1931-11-22 09:00:00 TS 22.4127 -64.1094 main 473 473 P_____________ AL131931 22.4127 -64.1094 TS 35 0 11 317
1931326N22296 1931 58 NA NA NOT_NAMED 1931-11-22 12:00:00 TS 22.8000 -64.5000 35 hurdat_atl main 505 505 O_____________ hurdat_atl AL131931 22.8000 -64.5000 TS 35 0 10 317
1931326N22296 1931 58 NA NA NOT_NAMED 1931-11-22 15:00:00 TS 23.1499 -64.8579 main 530 530 P_____________ AL131931 23.1499 -64.8579 TS 35 0 10 317
1931326N22296 1931 58 NA NA NOT_NAMED 1931-11-22 18:00:00 TS 23.5000 -65.2000 35 hurdat_atl main 571 571 O_____________ hurdat_atl AL131931 23.5000 -65.2000 TS 35 0 10 320
1931326N22296 1931 58 NA NA NOT_NAMED 1931-11-22 21:00:00 TS 23.8924 -65.5427 main 615 615 P_____________ AL131931 23.8924 -65.5427 TS 35 0 10 321
1931326N22296 1931 58 NA NA NOT_NAMED 1931-11-23 00:00:00 TS 24.3000 -65.9000 35 hurdat_atl main 659 659 O_____________ hurdat_atl AL131931 24.3000 -65.9000 TS 35 0 11 320
1931326N22296 1931 58 NA NA NOT_NAMED 1931-11-23 03:00:00 TS 24.7000 -66.2927 main 678 678 P_____________ AL131931 24.7000 -66.2927 TS 35 0 11 318
1931326N22296 1931 58 NA NA NOT_NAMED 1931-11-23 06:00:00 TS 25.1000 -66.7000 35 hurdat_atl main 701 701 O_____________ hurdat_atl AL131931 25.1000 -66.7000 TS 35 0 11 319
1931326N22296 1931 58 NA NA NOT_NAMED 1931-11-23 09:00:00 TS 25.5071 -67.0705 main 723 723 P_____________ AL131931 25.5071 -67.0705 TS 37 0 11 318
1931326N22296 1931 58 NA NA NOT_NAMED 1931-11-23 12:00:00 TS 25.9000 -67.5000 40 hurdat_atl main 749 745 O_____________ hurdat_atl AL131931 25.9000 -67.5000 TS 40 0 11 311
1931326N22296 1931 58 NA NA NOT_NAMED 1931-11-23 15:00:00 TS 26.2570 -68.0331 main 763 742 P_____________ AL131931 26.2570 -68.0331 TS 42 0 13 303
1931326N22296 1931 58 NA NA NOT_NAMED 1931-11-23 18:00:00 TS 26.6000 -68.7000 45 hurdat_atl main 744 729 O_____________ hurdat_atl AL131931 26.6000 -68.7000 TS 45 0 15 298
1931326N22296 1931 58 NA NA NOT_NAMED 1931-11-23 21:00:00 TS 26.9498 -69.4979 main 729 726 P_____________ AL131931 26.9498 -69.4979 TS 47 0 17 295
1931326N22296 1931 58 NA NA NOT_NAMED 1931-11-24 00:00:00 TS 27.3000 -70.4000 50 hurdat_atl main 730 722 O_____________ hurdat_atl AL131931 27.3000 -70.4000 TS 50 0 18 294
1931326N22296 1931 58 NA NA NOT_NAMED 1931-11-24 03:00:00 TS 27.6648 -71.3425 main 727 661 P_____________ AL131931 27.6648 -71.3425 TS 52 0 18 293
1931326N22296 1931 58 NA NA NOT_NAMED 1931-11-24 06:00:00 TS 28.0000 -72.3000 55 hurdat_atl main 652 595 O_____________ hurdat_atl AL131931 28.0000 -72.3000 TS 55 0 18 291
1931326N22296 1931 58 NA NA NOT_NAMED 1931-11-24 09:00:00 TS 28.3180 -73.2895 main 587 541 P_____________ AL131931 28.3180 -73.2895 TS 55 0 17 288
1931326N22296 1931 58 NA NA NOT_NAMED 1931-11-24 12:00:00 TS 28.5000 -74.1000 55 hurdat_atl main 541 514 O_____________ hurdat_atl AL131931 28.5000 -74.1000 TS 55 0 11 277
1931326N22296 1931 58 NA NA NOT_NAMED 1931-11-24 15:00:00 TS 28.4590 -74.5558 main 507 478 P_____________ AL131931 28.4590 -74.5558 TS 55 0 6 252
1931326N22296 1931 58 NA NA NOT_NAMED 1931-11-24 18:00:00 TS 28.3000 -74.8000 55 hurdat_atl main 478 456 O_____________ hurdat_atl AL131931 28.3000 -74.8000 TS 55 0 5 234
1931326N22296 1931 58 NA NA NOT_NAMED 1931-11-24 21:00:00 TS 28.1574 -75.0299 main 456 426 P_____________ AL131931 28.1574 -75.0299 TS 52 0 5 229
1931326N22296 1931 58 NA NA NOT_NAMED 1931-11-25 00:00:00 TS 28.0000 -75.2000 50 hurdat_atl main 426 412 O_____________ hurdat_atl AL131931 28.0000 -75.2000 TS 50 0 4 223
1931326N22296 1931 58 NA NA NOT_NAMED 1931-11-25 03:00:00 TS 27.8500 -75.3574 main 397 382 P_____________ AL131931 27.8500 -75.3574 TS 45 0 4 221
1931326N22296 1931 58 NA NA NOT_NAMED 1931-11-25 06:00:00 TS 27.7000 -75.5000 40 hurdat_atl main 382 367 O_____________ hurdat_atl AL131931 27.7000 -75.5000 TS 40 0 4 220
1931326N22296 1931 58 NA NA NOT_NAMED 1931-11-25 09:00:00 TS 27.5500 -75.6424 main 359 337 P_____________ AL131931 27.5500 -75.6424 TS 37 0 4 221
1931326N22296 1931 58 NA NA NOT_NAMED 1931-11-25 12:00:00 TS 27.4000 -75.8000 35 hurdat_atl main 337 316 O_____________ hurdat_atl AL131931 27.4000 -75.8000 TS 35 0 4 226
1931326N22296 1931 58 NA NA NOT_NAMED 1931-11-25 15:00:00 TS 27.2501 -75.9901 main 316 286 P_____________ AL131931 27.2501 -75.9901 TS 32 -1 5 230
1931326N22296 1931 58 NA NA NOT_NAMED 1931-11-25 18:00:00 TS 27.1000 -76.2000 30 hurdat_atl main 286 O_____________ hurdat_atl AL131931 27.1000 -76.2000 TD 30 -1 5 231

About IBTrACS Database

This database is a web-friendly format of International Best Track Archive for Climate Stewardship (IBTrACS), a global best track data archive curated by NOAA dating back to 1842.

Updated: 2021-10-08